Time;durP1;ratioP1;P1;durP2;ratioP2;P2;SDS_P1;SDS_P2;PMS_P1;PMS_P2;Temp;Humidity;BMP_temperature;BMP_pressure;BME280_temperature;BME280_humidity;BME280_pressure;Samples;Min_cycle;Max_cycle;Signal;HPM_P1;HPM_P2
2021/09/21 00:01:26;;;;;;;11.63;7.40;;;;;;;;;;5033239;28;20081;-66
2021/09/21 00:03:53;;;;;;;10.65;6.90;;;;;;;;;;5024399;28;20501;-66
2021/09/21 00:06:19;;;;;;;12.60;6.97;;;;;;;;;;5028833;28;20099;-66
2021/09/21 00:08:46;;;;;;;9.77;6.63;;;;;;;;;;5024009;28;20111;-66
2021/09/21 00:11:12;;;;;;;12.40;7.50;;;;;;;;;;5024762;28;20128;-66
2021/09/21 00:13:39;;;;;;;13.02;7.28;;;;;;;;;;5025901;28;20160;-66
2021/09/21 00:16:06;;;;;;;11.38;7.13;;;;;;;;;;5026551;28;20057;-66
2021/09/21 00:18:32;;;;;;;10.50;7.20;;;;;;;;;;5027482;28;20124;-66
2021/09/21 00:20:59;;;;;;;14.30;6.90;;;;;;;;;;5023830;28;20099;-66
2021/09/21 00:23:26;;;;;;;14.77;7.40;;;;;;;;;;5026865;28;20050;-66
2021/09/21 00:25:52;;;;;;;13.25;6.72;;;;;;;;;;5025661;28;20129;-66
2021/09/21 00:28:19;;;;;;;10.88;7.45;;;;;;;;;;5028177;28;20089;-66
2021/09/21 00:30:48;;;;;;;13.43;7.57;;;;;;;;;;5024702;28;20466;-66
2021/09/21 00:33:19;;;;;;;13.00;6.88;;;;;;;;;;5022522;28;20136;-66
2021/09/21 00:35:48;;;;;;;13.02;6.90;;;;;;;;;;5026847;28;20556;-66
2021/09/21 00:38:16;;;;;;;11.32;7.03;;;;;;;;;;5026376;28;20069;-66
2021/09/21 00:40:43;;;;;;;16.20;6.85;;;;;;;;;;5023041;28;20088;-66
2021/09/21 00:43:11;;;;;;;13.68;7.00;;;;;;;;;;5023963;28;20140;-66
2021/09/21 00:45:38;;;;;;;10.93;7.10;;;;;;;;;;5023465;28;20084;-66
2021/09/21 00:48:04;;;;;;;11.80;6.93;;;;;;;;;;5022595;28;20545;-66
2021/09/21 00:50:32;;;;;;;11.38;6.78;;;;;;;;;;5027523;28;20077;-66
2021/09/21 00:52:59;;;;;;;12.80;7.03;;;;;;;;;;5018977;28;20080;-66
2021/09/21 00:55:26;;;;;;;11.73;7.00;;;;;;;;;;5026324;28;20136;-66
2021/09/21 00:57:53;;;;;;;12.93;6.95;;;;;;;;;;5019576;28;20128;-66
2021/09/21 01:00:20;;;;;;;12.20;6.63;;;;;;;;;;5029672;28;20465;-66
2021/09/21 01:02:47;;;;;;;12.13;6.40;;;;;;;;;;5021233;28;20133;-66
2021/09/21 01:05:14;;;;;;;10.10;6.75;;;;;;;;;;5025894;28;20441;-66
2021/09/21 01:07:42;;;;;;;11.80;6.20;;;;;;;;;;5022914;28;20133;-66
2021/09/21 01:10:10;;;;;;;15.18;6.32;;;;;;;;;;5020560;28;20085;-66
2021/09/21 01:12:37;;;;;;;11.10;6.38;;;;;;;;;;5025834;28;20136;-66
2021/09/21 01:15:04;;;;;;;;;;;;;;;;;;5027830;28;20433;-66
2021/09/21 01:17:31;;;;;;;11.00;7.60;;;;;;;;;;5026187;28;19956;-66
2021/09/21 01:19:58;;;;;;;13.23;7.07;;;;;;;;;;5020415;28;20073;-66
2021/09/21 01:22:25;;;;;;;13.63;6.72;;;;;;;;;;5023036;28;20045;-66
2021/09/21 01:24:52;;;;;;;10.43;6.80;;;;;;;;;;5033266;28;20104;-66
2021/09/21 01:27:18;;;;;;;11.30;7.35;;;;;;;;;;5021208;28;20056;-66
2021/09/21 01:29:45;;;;;;;10.30;7.10;;;;;;;;;;5024604;28;20557;-66
2021/09/21 01:32:11;;;;;;;12.98;7.50;;;;;;;;;;5024107;28;20080;-66
2021/09/21 01:34:39;;;;;;;13.45;6.82;;;;;;;;;;5023435;28;20136;-66
2021/09/21 01:37:11;;;;;;;10.45;7.13;;;;;;;;;;5023829;28;20137;-66
2021/09/21 01:39:38;;;;;;;13.70;6.78;;;;;;;;;;5025569;28;20140;-66
2021/09/21 01:42:04;;;;;;;20.25;7.35;;;;;;;;;;5021151;28;20129;-66
2021/09/21 01:44:31;;;;;;;14.63;7.00;;;;;;;;;;5022902;28;20104;-66
2021/09/21 01:47:02;;;;;;;12.57;6.97;;;;;;;;;;5026699;28;20129;-66
2021/09/21 01:49:35;;;;;;;10.40;7.25;;;;;;;;;;5022608;28;20136;-66
2021/09/21 01:55:06;;;;;;;10.32;7.38;;;;;;;;;;5022025;28;20500;-66
2021/09/21 02:00:07;;;;;;;16.30;8.10;;;;;;;;;;5019052;28;20077;-66
2021/09/21 02:02:34;;;;;;;14.60;7.60;;;;;;;;;;5019666;28;20132;-66
2021/09/21 02:05:02;;;;;;;12.73;7.25;;;;;;;;;;5022068;28;20045;-66
2021/09/21 02:07:28;;;;;;;14.63;7.87;;;;;;;;;;5022178;28;20129;-66
2021/09/21 02:09:55;;;;;;;12.70;7.40;;;;;;;;;;5022286;28;20380;-66
2021/09/21 02:12:22;;;;;;;14.20;7.57;;;;;;;;;;5018359;28;20571;-66
2021/09/21 02:14:48;;;;;;;15.43;7.63;;;;;;;;;;5023507;28;20041;-66
2021/09/21 02:17:15;;;;;;;11.63;7.45;;;;;;;;;;5022137;28;20081;-66
2021/09/21 02:19:42;;;;;;;11.43;7.63;;;;;;;;;;5021989;28;20134;-66
2021/09/21 02:22:08;;;;;;;13.65;7.82;;;;;;;;;;5020652;28;20141;-66
2021/09/21 02:24:35;;;;;;;16.17;8.23;;;;;;;;;;5016868;28;20144;-66
2021/09/21 02:27:02;;;;;;;10.57;7.50;;;;;;;;;;5023965;28;20137;-66
2021/09/21 02:29:29;;;;;;;11.57;7.65;;;;;;;;;;5025157;28;20092;-66
2021/09/21 02:31:56;;;;;;;14.00;7.45;;;;;;;;;;5020026;28;20137;-66
2021/09/21 02:34:22;;;;;;;13.68;7.90;;;;;;;;;;5018380;28;20132;-66
2021/09/21 02:36:49;;;;;;;12.77;7.57;;;;;;;;;;5020433;28;20168;-66
2021/09/21 02:39:16;;;;;;;12.48;7.75;;;;;;;;;;5026077;28;20128;-66
2021/09/21 02:41:42;;;;;;;13.95;8.70;;;;;;;;;;5023980;28;20129;-66
2021/09/21 02:44:09;;;;;;;15.90;8.70;;;;;;;;;;5020312;28;20056;-66
2021/09/21 02:46:36;;;;;;;13.90;8.90;;;;;;;;;;5018437;28;20133;-66
2021/09/21 02:49:02;;;;;;;15.90;7.82;;;;;;;;;;5020868;28;20140;-66
2021/09/21 02:51:29;;;;;;;18.98;8.80;;;;;;;;;;5022871;28;20075;-66
2021/09/21 02:53:55;;;;;;;12.57;8.43;;;;;;;;;;5023525;28;20045;-66
2021/09/21 02:56:22;;;;;;;15.27;8.15;;;;;;;;;;5025256;28;20120;-66
2021/09/21 02:58:48;;;;;;;12.55;8.48;;;;;;;;;;5026376;28;20132;-66
2021/09/21 03:01:15;;;;;;;13.77;8.80;;;;;;;;;;5022979;28;20092;-66
2021/09/21 03:03:46;;;;;;;16.25;8.85;;;;;;;;;;5023424;28;20075;-66
2021/09/21 03:12:11;;;;;;;13.63;8.05;;;;;;;;;;5028231;28;20104;-66
2021/09/21 03:17:27;;;;;;;16.17;8.75;;;;;;;;;;5025343;28;20088;-66
2021/09/21 03:19:58;;;;;;;12.05;8.43;;;;;;;;;;5029524;28;20081;-66
2021/09/21 03:22:25;;;;;;;13.40;8.52;;;;;;;;;;5024244;28;20077;-66
2021/09/21 03:24:52;;;;;;;17.27;8.87;;;;;;;;;;5029623;28;20091;-66
2021/09/21 03:27:20;;;;;;;13.35;8.63;;;;;;;;;;5025818;28;20387;-66
2021/09/21 03:29:46;;;;;;;15.35;9.43;;;;;;;;;;5026772;28;20899;-66
2021/09/21 03:32:13;;;;;;;14.65;8.88;;;;;;;;;;5030424;28;20521;-67
2021/09/21 03:34:41;;;;;;;16.48;9.07;;;;;;;;;;5004745;28;20083;-66
2021/09/21 03:37:08;;;;;;;12.03;8.43;;;;;;;;;;5030868;28;20176;-66
2021/09/21 03:39:35;;;;;;;11.27;8.55;;;;;;;;;;5031352;28;20399;-66
2021/09/21 03:42:02;;;;;;;14.57;9.38;;;;;;;;;;5022671;28;20589;-66
2021/09/21 03:44:29;;;;;;;17.88;9.18;;;;;;;;;;5026393;28;20148;-66
2021/09/21 03:46:55;;;;;;;12.82;8.43;;;;;;;;;;5028066;28;20128;-66
2021/09/21 03:49:22;;;;;;;13.30;8.98;;;;;;;;;;5029021;28;20084;-66
2021/09/21 03:51:49;;;;;;;14.77;8.87;;;;;;;;;;5031425;28;20037;-66
2021/09/21 03:54:15;;;;;;;13.10;8.93;;;;;;;;;;5029748;28;20324;-66
2021/09/21 03:56:43;;;;;;;13.25;7.88;;;;;;;;;;5028574;28;20620;-67
2021/09/21 03:59:09;;;;;;;14.27;9.00;;;;;;;;;;5028725;28;20088;-66
2021/09/21 04:01:36;;;;;;;12.23;8.55;;;;;;;;;;5026401;28;20556;-66
2021/09/21 04:04:03;;;;;;;13.02;8.60;;;;;;;;;;5025340;28;20046;-66
2021/09/21 04:06:29;;;;;;;13.83;8.40;;;;;;;;;;5025159;28;20129;-67
2021/09/21 04:08:56;;;;;;;16.40;9.05;;;;;;;;;;5023871;28;20513;-66
2021/09/21 04:11:23;;;;;;;14.07;9.00;;;;;;;;;;5030809;28;20045;-66
2021/09/21 04:13:50;;;;;;;12.75;8.82;;;;;;;;;;5026165;28;20509;-66
2021/09/21 04:16:17;;;;;;;11.75;8.18;;;;;;;;;;5030202;28;20180;-66
2021/09/21 04:18:44;;;;;;;17.05;9.20;;;;;;;;;;5029263;28;20088;-66
2021/09/21 04:21:10;;;;;;;14.10;8.70;;;;;;;;;;5027234;28;20073;-67
2021/09/21 04:23:40;;;;;;;19.02;8.75;;;;;;;;;;5023900;28;20138;-66
2021/09/21 04:26:07;;;;;;;13.35;8.32;;;;;;;;;;5023933;28;20103;-66
2021/09/21 04:28:34;;;;;;;14.43;8.57;;;;;;;;;;5023678;28;20518;-66
2021/09/21 04:31:08;;;;;;;14.88;9.02;;;;;;;;;;5026716;28;20096;-66
2021/09/21 04:33:40;;;;;;;11.40;8.50;;;;;;;;;;5020092;28;20058;-66
2021/09/21 04:36:08;;;;;;;14.70;9.00;;;;;;;;;;5027369;28;20136;-66
2021/09/21 04:38:35;;;;;;;13.23;9.30;;;;;;;;;;5020442;28;20088;-66
2021/09/21 04:41:03;;;;;;;12.70;8.60;;;;;;;;;;5022857;28;20128;-66
2021/09/21 04:43:31;;;;;;;13.45;8.68;;;;;;;;;;5017413;28;20135;-66
2021/09/21 04:45:58;;;;;;;12.60;9.02;;;;;;;;;;5017726;28;20480;-66
2021/09/21 04:48:25;;;;;;;14.70;8.23;;;;;;;;;;5019414;28;20160;-66
2021/09/21 04:50:51;;;;;;;15.52;8.88;;;;;;;;;;5024073;28;20073;-66
2021/09/21 04:53:18;;;;;;;13.13;8.63;;;;;;;;;;5021384;28;20049;-66
2021/09/21 04:55:44;;;;;;;11.40;8.90;;;;;;;;;;5028823;28;20167;-66
2021/09/21 04:58:11;;;;;;;16.45;8.80;;;;;;;;;;5025144;28;20144;-66
2021/09/21 05:00:37;;;;;;;12.30;8.75;;;;;;;;;;5017862;28;20072;-66
2021/09/21 05:03:05;;;;;;;14.40;8.77;;;;;;;;;;5024966;28;20402;-66
2021/09/21 05:05:32;;;;;;;17.42;9.07;;;;;;;;;;5019914;28;20080;-66
2021/09/21 05:07:59;;;;;;;14.65;9.85;;;;;;;;;;5027212;28;20045;-66
2021/09/21 05:10:27;;;;;;;18.13;9.70;;;;;;;;;;5023253;28;20531;-66
2021/09/21 05:12:53;;;;;;;15.05;9.73;;;;;;;;;;5027346;28;20084;-66
2021/09/21 05:15:19;;;;;;;15.32;9.00;;;;;;;;;;5023726;28;20180;-66
2021/09/21 05:17:46;;;;;;;13.40;9.27;;;;;;;;;;5026358;28;20140;-66
2021/09/21 05:20:12;;;;;;;17.55;9.45;;;;;;;;;;5021135;28;20367;-66
2021/09/21 05:22:39;;;;;;;12.07;9.10;;;;;;;;;;5027685;28;20053;-66
2021/09/21 05:25:07;;;;;;;12.00;8.95;;;;;;;;;;5026417;28;20168;-66
2021/09/21 05:27:34;;;;;;;13.80;9.17;;;;;;;;;;5026450;28;20128;-66
2021/09/21 05:30:00;;;;;;;13.18;9.15;;;;;;;;;;5023834;28;20375;-66
2021/09/21 05:32:28;;;;;;;;;;;;;;;;;;5026059;28;20076;-66
2021/09/21 05:34:54;;;;;;;16.27;9.88;;;;;;;;;;5030819;28;19964;-66
2021/09/21 05:37:22;;;;;;;14.90;8.98;;;;;;;;;;5020956;28;20401;-66
2021/09/21 05:39:49;;;;;;;13.63;8.82;;;;;;;;;;5022619;28;20144;-66
2021/09/21 05:42:15;;;;;;;15.13;9.70;;;;;;;;;;5027364;28;20140;-66
2021/09/21 05:44:42;;;;;;;14.77;8.45;;;;;;;;;;5017434;28;20165;-66
2021/09/21 05:47:08;;;;;;;13.30;9.10;;;;;;;;;;5023165;28;20076;-66
2021/09/21 05:49:36;;;;;;;19.08;9.48;;;;;;;;;;5023923;28;20072;-66
2021/09/21 05:52:02;;;;;;;12.27;9.18;;;;;;;;;;5026334;28;20080;-66
2021/09/21 05:54:31;;;;;;;12.55;7.75;;;;;;;;;;5018908;28;20133;-66
2021/09/21 05:56:58;;;;;;;12.07;9.00;;;;;;;;;;5021690;28;20133;-66
2021/09/21 05:59:24;;;;;;;11.75;8.80;;;;;;;;;;5021901;28;20096;-67
2021/09/21 06:01:51;;;;;;;13.70;9.15;;;;;;;;;;5000959;28;20045;-66
2021/09/21 06:04:18;;;;;;;13.80;9.23;;;;;;;;;;5024450;28;20143;-66
2021/09/21 06:06:44;;;;;;;14.32;8.60;;;;;;;;;;5016502;28;20076;-66
2021/09/21 06:09:11;;;;;;;13.25;8.85;;;;;;;;;;5017534;28;20513;-66
2021/09/21 06:11:37;;;;;;;12.60;8.55;;;;;;;;;;5019481;28;20137;-66
2021/09/21 06:14:04;;;;;;;10.70;7.97;;;;;;;;;;5023822;28;20060;-66
2021/09/21 06:16:32;;;;;;;13.25;8.38;;;;;;;;;;5023593;28;20080;-66
2021/09/21 06:18:59;;;;;;;13.57;8.77;;;;;;;;;;5025243;28;20050;-66
2021/09/21 06:21:25;;;;;;;10.82;8.30;;;;;;;;;;5021322;28;20585;-66
2021/09/21 06:23:55;;;;;;;12.63;8.55;;;;;;;;;;5024330;28;20163;-66
2021/09/21 06:26:21;;;;;;;;;;;;;;;;;;5023544;28;20073;-66
2021/09/21 06:28:47;;;;;;;12.77;8.90;;;;;;;;;;5022951;28;19968;-66
2021/09/21 06:31:14;;;;;;;13.07;8.13;;;;;;;;;;5022153;28;20160;-67
2021/09/21 06:33:40;;;;;;;12.07;8.43;;;;;;;;;;5022404;28;20046;-66
2021/09/21 06:36:08;;;;;;;13.95;8.40;;;;;;;;;;5024374;28;20063;-66
2021/09/21 06:38:37;;;;;;;11.27;7.35;;;;;;;;;;5020008;28;20061;-66
2021/09/21 06:41:05;;;;;;;11.73;8.15;;;;;;;;;;5022912;28;20081;-66
2021/09/21 06:43:31;;;;;;;11.90;8.32;;;;;;;;;;5026500;28;20132;-66
2021/09/21 06:45:58;;;;;;;11.53;8.47;;;;;;;;;;5007359;28;20477;-66
2021/09/21 06:48:25;;;;;;;13.30;8.45;;;;;;;;;;5021228;28;20354;-66
2021/09/21 06:50:51;;;;;;;10.70;7.75;;;;;;;;;;5019000;28;20073;-66
2021/09/21 06:53:19;;;;;;;12.70;8.20;;;;;;;;;;5022511;28;20179;-66
2021/09/21 06:55:46;;;;;;;19.70;7.80;;;;;;;;;;5025262;28;20046;-67
2021/09/21 06:58:12;;;;;;;10.18;7.50;;;;;;;;;;5023291;28;20501;-66
2021/09/21 07:00:41;;;;;;;;;;;;;;;;;;5027623;28;20167;-66
2021/09/21 07:03:08;;;;;;;13.68;7.90;;;;;;;;;;5026787;28;19925;-66
2021/09/21 07:05:35;;;;;;;9.30;7.45;;;;;;;;;;5006523;28;20493;-66
2021/09/21 07:08:02;;;;;;;12.18;7.50;;;;;;;;;;5023891;28;20564;-66
2021/09/21 07:10:28;;;;;;;10.35;7.55;;;;;;;;;;5027919;28;20517;-66
2021/09/21 07:12:55;;;;;;;11.30;8.13;;;;;;;;;;5020444;28;20069;-66
2021/09/21 07:15:22;;;;;;;11.82;7.90;;;;;;;;;;5021244;28;20132;-66
2021/09/21 07:17:52;;;;;;;13.85;8.15;;;;;;;;;;5027656;28;20046;-66
2021/09/21 07:20:20;;;;;;;16.10;8.27;;;;;;;;;;5023742;28;20092;-66
2021/09/21 07:22:48;;;;;;;10.95;8.52;;;;;;;;;;5023005;28;20073;-66
2021/09/21 07:25:15;;;;;;;13.65;7.85;;;;;;;;;;5027383;28;20144;-66
2021/09/21 07:27:41;;;;;;;11.07;7.07;;;;;;;;;;5023907;28;20136;-66
2021/09/21 07:30:08;;;;;;;12.20;8.70;;;;;;;;;;5018568;28;20472;-66
2021/09/21 07:32:34;;;;;;;11.48;8.65;;;;;;;;;;5025644;28;20339;-66
2021/09/21 07:35:03;;;;;;;12.05;8.85;;;;;;;;;;5020155;28;20583;-67
2021/09/21 07:37:29;;;;;;;10.82;7.88;;;;;;;;;;5022085;28;20133;-66
2021/09/21 07:39:56;;;;;;;12.02;8.52;;;;;;;;;;5021027;28;20561;-67
2021/09/21 07:42:22;;;;;;;15.15;8.68;;;;;;;;;;5021717;28;20133;-67
2021/09/21 07:44:49;;;;;;;15.15;9.43;;;;;;;;;;5021549;28;20157;-67
2021/09/21 07:47:16;;;;;;;13.70;9.23;;;;;;;;;;5023849;28;20077;-67
2021/09/21 07:49:42;;;;;;;13.97;8.47;;;;;;;;;;5021546;28;20490;-67
2021/09/21 07:52:10;;;;;;;;;;;;;;;;;;5022760;28;20119;-67
2021/09/21 07:54:36;;;;;;;11.82;8.57;;;;;;;;;;5022414;28;20008;-68
2021/09/21 07:57:03;;;;;;;15.07;8.90;;;;;;;;;;5020571;28;20133;-68
2021/09/21 07:59:31;;;;;;;16.00;8.75;;;;;;;;;;5026583;28;20489;-68
2021/09/21 08:01:57;;;;;;;11.05;9.02;;;;;;;;;;5026402;28;20133;-68
2021/09/21 08:04:24;;;;;;;11.75;8.95;;;;;;;;;;5021973;28;20092;-68
2021/09/21 08:06:51;;;;;;;14.15;9.90;;;;;;;;;;5024949;28;20052;-68
2021/09/21 08:09:18;;;;;;;11.52;9.05;;;;;;;;;;5027022;28;20140;-68
2021/09/21 08:11:45;;;;;;;16.92;9.93;;;;;;;;;;5024495;28;20081;-67
2021/09/21 08:14:14;;;;;;;11.43;8.98;;;;;;;;;;5023601;28;20676;-67
2021/09/21 08:16:40;;;;;;;14.35;9.88;;;;;;;;;;5028998;28;20084;-66
2021/09/21 08:19:06;;;;;;;15.63;10.00;;;;;;;;;;5027539;28;20518;-65
2021/09/21 08:21:34;;;;;;;13.13;9.75;;;;;;;;;;5030380;28;20042;-65
2021/09/21 08:24:01;;;;;;;12.23;8.95;;;;;;;;;;5028107;28;20052;-65
2021/09/21 08:26:27;;;;;;;12.25;8.07;;;;;;;;;;5019786;28;20141;-66
2021/09/21 08:28:55;;;;;;;12.93;9.65;;;;;;;;;;5020528;28;20133;-65
2021/09/21 08:31:21;;;;;;;11.45;8.93;;;;;;;;;;5021224;28;20064;-66
2021/09/21 08:33:48;;;;;;;14.63;9.25;;;;;;;;;;5023517;28;20037;-66
2021/09/21 08:36:21;;;;;;;14.88;9.60;;;;;;;;;;5026523;28;20042;-66
2021/09/21 08:38:50;;;;;;;14.73;9.35;;;;;;;;;;5027080;28;20088;-66
2021/09/21 08:41:17;;;;;;;15.93;9.32;;;;;;;;;;5023534;28;20053;-66
2021/09/21 08:43:43;;;;;;;19.33;9.48;;;;;;;;;;5027185;28;20145;-66
2021/09/21 08:46:10;;;;;;;13.30;8.50;;;;;;;;;;5024645;28;20141;-66
2021/09/21 08:48:37;;;;;;;;;;;;;;;;;;5029753;28;20089;-66
2021/09/21 08:51:04;;;;;;;9.45;7.63;;;;;;;;;;5023130;28;20015;-66
2021/09/21 08:53:30;;;;;;;12.27;8.32;;;;;;;;;;5026052;28;20132;-66
2021/09/21 08:55:57;;;;;;;11.45;8.48;;;;;;;;;;5023124;28;20088;-66
2021/09/21 08:58:24;;;;;;;14.90;8.37;;;;;;;;;;5024092;28;20128;-66
2021/09/21 09:00:51;;;;;;;14.88;8.77;;;;;;;;;;5022851;28;20081;-66
2021/09/21 09:03:19;;;;;;;11.95;8.40;;;;;;;;;;5025644;28;20120;-66
2021/09/21 09:05:47;;;;;;;13.27;8.20;;;;;;;;;;5025368;28;20049;-66
2021/09/21 09:08:26;;;;;;;12.95;8.05;;;;;;;;;;5024222;28;20063;-66
2021/09/21 09:10:57;;;;;;;11.85;8.75;;;;;;;;;;5021107;28;20092;-66
2021/09/21 09:13:25;;;;;;;12.02;7.85;;;;;;;;;;5020684;28;20124;-66
2021/09/21 09:15:51;;;;;;;;;;;;;;;;;;5021841;28;20458;-66
2021/09/21 09:18:23;;;;;;;11.07;7.57;;;;;;;;;;5021946;28;19921;-66
2021/09/21 09:20:49;;;;;;;10.63;7.95;;;;;;;;;;5024050;28;20124;-66
2021/09/21 09:23:16;;;;;;;12.93;8.77;;;;;;;;;;5020843;28;20081;-65
2021/09/21 09:25:43;;;;;;;13.88;9.02;;;;;;;;;;5009662;28;20077;-66
2021/09/21 09:28:20;;;;;;;10.55;7.82;;;;;;;;;;5027846;28;20134;-65
2021/09/21 09:30:48;;;;;;;17.63;8.57;;;;;;;;;;5021648;28;20544;-66
2021/09/21 09:33:15;;;;;;;11.40;8.00;;;;;;;;;;5019231;28;20128;-66
2021/09/21 09:35:43;;;;;;;;;;;;;;;;;;5016980;28;20136;-65
2021/09/21 09:38:13;;;;;;;11.60;7.78;;;;;;;;;;5020861;28;19964;-66
2021/09/21 09:40:45;;;;;;;11.52;8.43;;;;;;;;;;5027077;28;20448;-65
2021/09/21 09:43:16;;;;;;;13.45;8.13;;;;;;;;;;5031615;28;20088;-65
2021/09/21 09:45:46;;;;;;;10.85;8.27;;;;;;;;;;5026263;28;20049;-66
2021/09/21 09:48:20;;;;;;;11.10;7.65;;;;;;;;;;5024547;28;20053;-66
2021/09/21 09:50:53;;;;;;;13.35;8.15;;;;;;;;;;5019739;28;20081;-66
2021/09/21 09:53:21;;;;;;;13.25;8.05;;;;;;;;;;5027435;28;20128;-66
2021/09/21 09:55:47;;;;;;;;;;;;;;;;;;5023752;28;20489;-66
2021/09/21 09:58:15;;;;;;;11.98;8.05;;;;;;;;;;5024667;28;19987;-66
2021/09/21 10:00:43;;;;;;;10.95;7.43;;;;;;;;;;5017015;28;20091;-66
2021/09/21 10:03:10;;;;;;;10.80;7.78;;;;;;;;;;5019087;28;20088;-66
2021/09/21 10:05:38;;;;;;;13.50;8.50;;;;;;;;;;5021092;28;20060;-66
2021/09/21 10:08:05;;;;;;;14.57;8.85;;;;;;;;;;5021982;28;20077;-66
2021/09/21 10:10:33;;;;;;;13.15;8.05;;;;;;;;;;5021684;28;20085;-66
2021/09/21 10:13:02;;;;;;;12.07;8.18;;;;;;;;;;5023181;28;20521;-66
2021/09/21 10:15:29;;;;;;;;;;;;;;;;;;5021640;28;20577;-66
2021/09/21 10:17:57;;;;;;;12.77;8.70;;;;;;;;;;5024032;28;19921;-65
2021/09/21 10:20:31;;;;;;;13.65;9.30;;;;;;;;;;5022891;28;20497;-65
2021/09/21 10:22:58;;;;;;;10.52;7.50;;;;;;;;;;5022894;28;20096;-65
2021/09/21 10:25:26;;;;;;;14.07;8.75;;;;;;;;;;5018522;28;20057;-65
2021/09/21 10:28:16;;;;;;;13.07;8.13;;;;;;;;;;5025087;28;20421;-65
2021/09/21 10:30:56;;;;;;;13.68;8.02;;;;;;;;;;5017859;28;20160;-65
2021/09/21 10:33:26;;;;;;;12.15;7.88;;;;;;;;;;5019580;28;20129;-65
2021/09/21 10:35:54;;;;;;;12.55;8.30;;;;;;;;;;5025150;28;20129;-65
2021/09/21 10:38:21;;;;;;;11.82;7.60;;;;;;;;;;5022362;28;20144;-65
2021/09/21 10:40:49;;;;;;;13.70;8.10;;;;;;;;;;5014101;28;20056;-66
2021/09/21 10:43:20;;;;;;;10.07;7.40;;;;;;;;;;5021476;28;20148;-65
2021/09/21 10:45:48;;;;;;;12.27;7.65;;;;;;;;;;5017501;28;20050;-66
2021/09/21 10:48:18;;;;;;;12.02;7.85;;;;;;;;;;5022552;28;20071;-65
2021/09/21 10:50:52;;;;;;;12.07;8.02;;;;;;;;;;5026999;28;20049;-65
2021/09/21 10:53:21;;;;;;;15.30;7.10;;;;;;;;;;5020209;28;20049;-65
2021/09/21 10:55:57;;;;;;;9.57;6.93;;;;;;;;;;5025051;28;20155;-66
2021/09/21 10:58:23;;;;;;;10.32;7.40;;;;;;;;;;5021858;28;20088;-65
2021/09/21 11:00:50;;;;;;;12.07;7.45;;;;;;;;;;5019443;28;20145;-66
2021/09/21 11:03:16;;;;;;;11.73;7.28;;;;;;;;;;5027862;28;20057;-65
2021/09/21 11:05:43;;;;;;;13.77;7.72;;;;;;;;;;5024411;28;20498;-65
2021/09/21 11:08:14;;;;;;;12.02;8.00;;;;;;;;;;5024709;28;20555;-66
2021/09/21 11:10:49;;;;;;;10.75;7.15;;;;;;;;;;5020127;28;20132;-65
2021/09/21 11:13:16;;;;;;;11.75;7.43;;;;;;;;;;5026142;28;20084;-65
2021/09/21 11:15:43;;;;;;;;;;;;;;;;;;5022193;28;20058;-65
2021/09/21 11:18:10;;;;;;;12.80;7.85;;;;;;;;;;5025949;28;20261;-65
2021/09/21 11:20:48;;;;;;;13.20;7.68;;;;;;;;;;5007291;28;20069;-65
2021/09/21 11:23:16;;;;;;;10.60;7.28;;;;;;;;;;5021967;28;20087;-65
2021/09/21 11:25:44;;;;;;;12.57;7.60;;;;;;;;;;5026379;28;20141;-66
2021/09/21 11:28:11;;;;;;;11.35;7.25;;;;;;;;;;5027714;28;20088;-65
2021/09/21 11:30:38;;;;;;;9.43;6.63;;;;;;;;;;5024263;28;20092;-65
2021/09/21 11:33:12;;;;;;;15.15;7.70;;;;;;;;;;5023994;28;20049;-65
2021/09/21 11:35:38;;;;;;;9.88;7.55;;;;;;;;;;5019480;28;20140;-66
2021/09/21 11:38:09;;;;;;;21.42;7.15;;;;;;;;;;5028838;28;20497;-65
2021/09/21 11:40:35;;;;;;;15.18;7.72;;;;;;;;;;5030262;28;20136;-66
2021/09/21 11:43:02;;;;;;;8.43;6.88;;;;;;;;;;5021131;28;20482;-65
2021/09/21 11:45:29;;;;;;;12.07;7.85;;;;;;;;;;5020616;28;20871;-66
2021/09/21 11:47:55;;;;;;;9.57;7.20;;;;;;;;;;5027918;28;20077;-65
2021/09/21 11:50:23;;;;;;;10.27;6.95;;;;;;;;;;5018329;28;20081;-65
2021/09/21 11:52:51;;;;;;;10.15;7.90;;;;;;;;;;5020781;28;20481;-65
2021/09/21 11:55:20;;;;;;;10.82;8.23;;;;;;;;;;5020416;28;20078;-65
2021/09/21 11:57:47;;;;;;;9.60;7.13;;;;;;;;;;5024668;28;20125;-65
2021/09/21 12:00:18;;;;;;;9.15;6.85;;;;;;;;;;5019522;28;20144;-65
2021/09/21 12:02:45;;;;;;;9.98;7.20;;;;;;;;;;5025066;28;20439;-65
2021/09/21 12:05:12;;;;;;;12.13;7.40;;;;;;;;;;5026818;28;20555;-65
2021/09/21 12:07:40;;;;;;;8.50;6.60;;;;;;;;;;5021876;28;20076;-65
2021/09/21 12:10:09;;;;;;;11.02;6.72;;;;;;;;;;5019039;28;20089;-65
2021/09/21 12:12:35;;;;;;;13.18;8.27;;;;;;;;;;5027540;28;20165;-65
2021/09/21 12:15:02;;;;;;;12.60;7.10;;;;;;;;;;5030359;28;20077;-65
2021/09/21 12:17:29;;;;;;;12.40;7.30;;;;;;;;;;5021911;28;20081;-65
2021/09/21 12:19:59;;;;;;;10.15;7.28;;;;;;;;;;5018705;28;20145;-65
2021/09/21 12:22:26;;;;;;;10.43;7.57;;;;;;;;;;5021629;28;20074;-65
2021/09/21 12:24:53;;;;;;;11.65;7.20;;;;;;;;;;5021632;28;20092;-64
2021/09/21 12:27:24;;;;;;;11.98;7.43;;;;;;;;;;5027958;28;20057;-64
2021/09/21 12:29:55;;;;;;;17.27;7.82;;;;;;;;;;5027134;28;20124;-64
2021/09/21 12:32:26;;;;;;;11.07;6.90;;;;;;;;;;5024401;28;20100;-65
2021/09/21 12:35:07;;;;;;;10.13;6.45;;;;;;;;;;5024485;28;20132;-64
2021/09/21 12:37:42;;;;;;;9.15;6.30;;;;;;;;;;5026146;28;20084;-64
2021/09/21 12:40:12;;;;;;;10.27;6.80;;;;;;;;;;5026256;28;20088;-64
2021/09/21 12:42:39;;;;;;;9.40;6.93;;;;;;;;;;5025651;28;20128;-64
2021/09/21 12:45:06;;;;;;;12.93;7.30;;;;;;;;;;5021542;28;20085;-64
2021/09/21 12:47:40;;;;;;;10.05;6.72;;;;;;;;;;5025439;28;20036;-64
2021/09/21 12:50:16;;;;;;;15.88;7.10;;;;;;;;;;5019702;28;20085;-64
2021/09/21 12:52:53;;;;;;;10.60;6.75;;;;;;;;;;5023429;28;20136;-65
2021/09/21 12:55:46;;;;;;;8.90;6.93;;;;;;;;;;5022007;28;20067;-64
2021/09/21 12:58:13;;;;;;;8.90;7.10;;;;;;;;;;5016228;28;20084;-64
2021/09/21 13:00:41;;;;;;;10.90;7.82;;;;;;;;;;5029233;28;20088;-65
2021/09/21 13:03:07;;;;;;;12.10;7.35;;;;;;;;;;5024611;28;20053;-65
2021/09/21 13:05:36;;;;;;;10.43;7.07;;;;;;;;;;5020482;28;20099;-65
2021/09/21 13:08:02;;;;;;;12.40;7.82;;;;;;;;;;5027672;28;20477;-65
2021/09/21 13:10:29;;;;;;;8.60;6.63;;;;;;;;;;5019350;28;20097;-65
2021/09/21 13:12:58;;;;;;;10.30;6.22;;;;;;;;;;5018884;28;20088;-65
2021/09/21 13:15:25;;;;;;;10.30;6.50;;;;;;;;;;5021838;28;20144;-65
2021/09/21 13:17:53;;;;;;;9.85;6.50;;;;;;;;;;5026936;28;20120;-65
2021/09/21 13:20:20;;;;;;;7.97;6.50;;;;;;;;;;5022443;28;20129;-66
2021/09/21 13:22:47;;;;;;;7.68;6.15;;;;;;;;;;5022593;28;20553;-66
2021/09/21 13:25:13;;;;;;;9.82;6.30;;;;;;;;;;5018116;28;20076;-66
2021/09/21 13:27:40;;;;;;;10.48;6.63;;;;;;;;;;5028040;28;20495;-66
2021/09/21 13:30:07;;;;;;;8.98;7.03;;;;;;;;;;5020209;28;20136;-66
2021/09/21 13:32:33;;;;;;;8.88;6.22;;;;;;;;;;5022837;28;20462;-65
2021/09/21 13:35:00;;;;;;;7.53;6.27;;;;;;;;;;5022950;28;20132;-66
2021/09/21 13:37:26;;;;;;;9.80;6.30;;;;;;;;;;5026213;28;20335;-66
2021/09/21 13:39:53;;;;;;;10.77;6.53;;;;;;;;;;5020313;28;20141;-66
2021/09/21 13:42:20;;;;;;;10.20;5.75;;;;;;;;;;5018095;28;20476;-65
2021/09/21 13:44:46;;;;;;;12.05;6.20;;;;;;;;;;5022938;28;20525;-65
2021/09/21 13:47:12;;;;;;;9.25;6.18;;;;;;;;;;5023608;28;20144;-65
2021/09/21 13:49:41;;;;;;;7.80;6.15;;;;;;;;;;5023693;28;20496;-65
2021/09/21 13:52:09;;;;;;;12.10;6.53;;;;;;;;;;5025364;28;20136;-65
2021/09/21 13:54:36;;;;;;;9.77;6.95;;;;;;;;;;5024017;28;20108;-65
2021/09/21 13:57:04;;;;;;;10.05;6.20;;;;;;;;;;5023004;28;20149;-65
2021/09/21 13:59:30;;;;;;;6.50;5.27;;;;;;;;;;5021221;28;20513;-65
2021/09/21 14:02:03;;;;;;;11.52;5.50;;;;;;;;;;5017758;28;20375;-65
2021/09/21 14:04:31;;;;;;;11.05;6.15;;;;;;;;;;5023868;28;20056;-65
2021/09/21 14:06:58;;;;;;;7.00;5.57;;;;;;;;;;5025355;28;20510;-65
2021/09/21 14:09:28;;;;;;;7.10;5.93;;;;;;;;;;5012535;28;20132;-65
2021/09/21 14:11:55;;;;;;;7.32;5.10;;;;;;;;;;5021915;28;20501;-65
2021/09/21 14:14:22;;;;;;;7.68;5.25;;;;;;;;;;5021258;28;20117;-66
2021/09/21 14:16:49;;;;;;;5.72;4.95;;;;;;;;;;5025359;28;20084;-65
2021/09/21 14:19:17;;;;;;;13.80;5.20;;;;;;;;;;5021197;28;20056;-65
2021/09/21 14:21:43;;;;;;;9.43;4.88;;;;;;;;;;5015248;28;20141;-65
2021/09/21 14:24:10;;;;;;;6.00;4.50;;;;;;;;;;5018153;28;20582;-65
2021/09/21 14:26:38;;;;;;;8.82;4.88;;;;;;;;;;5021875;28;20567;-65
2021/09/21 14:29:05;;;;;;;8.85;4.88;;;;;;;;;;5024192;28;20055;-65
2021/09/21 14:31:31;;;;;;;7.03;4.63;;;;;;;;;;5022204;28;20417;-65
2021/09/21 14:33:59;;;;;;;6.82;4.68;;;;;;;;;;5019764;28;20295;-65
2021/09/21 14:36:25;;;;;;;5.30;4.43;;;;;;;;;;5018133;28;20088;-65
2021/09/21 14:38:52;;;;;;;5.68;4.20;;;;;;;;;;5017029;28;20052;-65
2021/09/21 14:41:18;;;;;;;7.03;4.90;;;;;;;;;;5014991;28;20433;-66
2021/09/21 14:43:45;;;;;;;5.65;4.57;;;;;;;;;;5016016;28;20122;-66
2021/09/21 14:46:12;;;;;;;6.72;4.43;;;;;;;;;;5022825;28;20128;-65
2021/09/21 14:48:40;;;;;;;6.60;4.78;;;;;;;;;;5024551;28;20048;-65
2021/09/21 14:51:06;;;;;;;;;;;;;;;;;;5022845;28;20054;-66
2021/09/21 14:53:33;;;;;;;5.13;4.28;;;;;;;;;;5023274;28;20380;-65